createdAt,value
2018-07-01T00:00:21.093Z,13.5
2018-07-01T00:01:20.527Z,13.5
2018-07-01T00:02:19.967Z,13.5
2018-07-01T00:03:18.689Z,13.4
2018-07-01T00:04:18.119Z,13.4
2018-07-01T00:05:17.448Z,13.4
2018-07-01T00:06:16.772Z,13.4
2018-07-01T00:07:16.082Z,13.4
2018-07-01T00:08:15.185Z,13.4
2018-07-01T00:09:14.513Z,13.4
2018-07-01T00:10:13.612Z,13.3
2018-07-01T00:11:12.825Z,13.3
2018-07-01T00:12:12.270Z,13.3
2018-07-01T00:13:11.704Z,13.3
2018-07-01T00:14:11.125Z,13.3
2018-07-01T00:15:09.855Z,13.3
2018-07-01T00:16:09.567Z,13.3
2018-07-01T00:17:08.780Z,13.3
2018-07-01T00:18:08.002Z,13.3
2018-07-01T00:19:07.330Z,13.3
2018-07-01T00:20:06.051Z,13.3
2018-07-01T00:21:05.488Z,13.3
2018-07-01T00:22:04.705Z,13.3
2018-07-01T00:23:04.137Z,13.2
2018-07-01T00:24:03.514Z,13.2
2018-07-01T00:25:02.733Z,13.2
2018-07-01T00:26:02.057Z,13.2
2018-07-01T00:27:01.396Z,13.1
2018-07-01T00:27:31.816Z,13.1
2018-07-01T00:28:59.605Z,13
2018-07-01T00:29:59.217Z,13
2018-07-01T00:30:58.032Z,13
2018-07-01T00:31:57.636Z,12.9
2018-07-01T00:32:56.975Z,12.9
2018-07-01T00:33:55.904Z,12.9
2018-07-01T00:34:55.231Z,12.9
2018-07-01T00:35:54.555Z,12.9
2018-07-01T00:36:53.665Z,12.8
2018-07-01T00:37:24.191Z,12.8
2018-07-01T00:37:54.722Z,12.8
2018-07-01T00:38:25.355Z,12.8
2018-07-01T00:39:51.450Z,12.7
2018-07-01T00:40:50.883Z,12.7
2018-07-01T00:41:49.812Z,12.7
2018-07-01T00:42:49.125Z,12.7
2018-07-01T00:43:48.330Z,12.7
2018-07-01T00:44:47.435Z,12.7
2018-07-01T00:45:46.858Z,12.6
2018-07-01T00:46:46.074Z,12.6
2018-07-01T00:47:45.287Z,12.6
2018-07-01T00:48:45.016Z,12.6
2018-07-01T00:49:43.827Z,12.5
2018-07-01T00:50:43.145Z,12.5
2018-07-01T00:51:42.466Z,12.5
2018-07-01T00:52:41.969Z,12.5
2018-07-01T00:53:40.674Z,12.5
2018-07-01T00:54:40.392Z,12.4
2018-07-01T00:55:39.711Z,12.4
2018-07-01T00:56:38.316Z,12.4
2018-07-01T00:57:38.246Z,12.4
2018-07-01T00:58:37.196Z,12.4
2018-07-01T00:59:36.514Z,12.4
2018-07-01T01:00:35.954Z,12.4
2018-07-01T01:01:34.699Z,12.4
2018-07-01T01:02:34.037Z,12.4
2018-07-01T01:03:33.640Z,12.4
2018-07-01T01:04:32.852Z,12.3
2018-07-01T01:05:31.956Z,12.3
2018-07-01T01:06:31.391Z,12.3
2018-07-01T01:07:01.934Z,12.3
2018-07-01T01:07:32.472Z,12.3
2018-07-01T01:08:02.994Z,12.3
2018-07-01T01:08:33.746Z,12.3
2018-07-01T01:09:04.266Z,12.3
2018-07-01T01:10:28.345Z,12.3
2018-07-01T01:11:27.666Z,12.3
2018-07-01T01:12:26.378Z,12.2
2018-07-01T01:13:25.479Z,12.2
2018-07-01T01:14:25.306Z,12.2
2018-07-01T01:15:24.629Z,12.2
2018-07-01T01:16:23.443Z,12.2
2018-07-01T01:16:53.958Z,12.2
2018-07-01T01:17:24.381Z,12.2
2018-07-01T01:17:54.913Z,12.2
2018-07-01T01:18:25.230Z,12.2
2018-07-01T01:18:55.962Z,12.2
2018-07-01T01:19:26.483Z,12.2
2018-07-01T01:19:56.905Z,12.2
2018-07-01T01:20:27.444Z,12.1
2018-07-01T01:20:58.178Z,12.1
2018-07-01T01:22:19.025Z,12.1
2018-07-01T01:23:18.129Z,12.1
2018-07-01T01:24:17.445Z,12
2018-07-01T01:25:16.658Z,12
2018-07-01T01:26:15.974Z,12
2018-07-01T01:27:14.970Z,11.9
2018-07-01T01:28:14.285Z,11.9
2018-07-01T01:29:13.721Z,11.9
2018-07-01T01:29:44.347Z,11.9
2018-07-01T01:31:12.460Z,11.9
2018-07-01T01:32:11.168Z,11.9
2018-07-01T01:33:10.491Z,11.9
2018-07-01T01:34:09.817Z,11.8
2018-07-01T01:35:09.126Z,11.8
2018-07-01T01:36:08.441Z,11.8
2018-07-01T01:37:07.771Z,11.8
2018-07-01T01:38:06.691Z,11.8
2018-07-01T01:39:06.119Z,11.8
2018-07-01T01:40:05.436Z,11.8
2018-07-01T01:41:04.646Z,11.8
2018-07-01T01:42:03.860Z,11.7
2018-07-01T01:44:01.963Z,11.7
2018-07-01T01:45:01.577Z,11.7
2018-07-01T01:46:00.808Z,11.7
2018-07-01T01:47:00.126Z,11.7
2018-07-01T01:47:59.051Z,11.7
2018-07-01T01:48:58.271Z,11.7
2018-07-01T01:49:57.584Z,11.7
2018-07-01T01:50:56.915Z,11.7
2018-07-01T01:51:56.230Z,11.7
2018-07-01T01:52:55.331Z,11.7
2018-07-01T01:53:54.656Z,11.7
2018-07-01T01:54:53.874Z,11.7
2018-07-01T01:55:53.087Z,11.7
2018-07-01T01:56:52.405Z,11.7
2018-07-01T01:57:51.223Z,11.7
2018-07-01T01:58:50.437Z,11.7
2018-07-01T01:59:21.073Z,11.7
2018-07-01T01:59:51.308Z,11.7
2018-07-01T02:00:21.533Z,11.7
2018-07-01T02:00:51.659Z,11.7
2018-07-01T02:01:48.571Z,11.7
2018-07-01T02:02:47.277Z,11.7
2018-07-01T02:03:47.104Z,11.7
2018-07-01T02:04:45.922Z,11.7
2018-07-01T02:05:45.356Z,11.7
2018-07-01T02:06:44.566Z,11.7
2018-07-01T02:07:43.892Z,11.7
2018-07-01T02:08:43.208Z,11.7
2018-07-01T02:10:41.196Z,11.7
2018-07-01T02:11:40.513Z,11.7
2018-07-01T02:12:39.935Z,11.7
2018-07-01T02:13:39.250Z,11.7
2018-07-01T02:14:38.165Z,11.7
2018-07-01T02:15:08.397Z,11.7
2018-07-01T02:15:39.021Z,11.7
2018-07-01T02:16:09.543Z,11.7
2018-07-01T02:17:35.830Z,11.7
2018-07-01T02:19:34.655Z,11.6
2018-07-01T02:20:33.868Z,11.7
2018-07-01T02:21:32.676Z,11.6
2018-07-01T02:22:31.997Z,11.6
2018-07-01T02:23:31.096Z,11.6
2018-07-01T02:24:30.812Z,11.6
2018-07-01T02:25:29.622Z,11.6
2018-07-01T02:26:28.939Z,11.6
2018-07-01T02:27:28.152Z,11.6
2018-07-01T02:28:27.466Z,11.5
2018-07-01T02:29:26.776Z,11.5
2018-07-01T02:30:25.891Z,11.5
2018-07-01T02:31:25.099Z,11.5
2018-07-01T02:32:24.416Z,11.5
2018-07-01T02:33:23.636Z,11.5
2018-07-01T02:34:22.581Z,11.5
2018-07-01T02:35:21.866Z,11.4
2018-07-01T02:36:21.306Z,11.4
2018-07-01T02:37:20.623Z,11.4
2018-07-01T02:38:19.558Z,11.4
2018-07-01T02:39:19.020Z,11.3
2018-07-01T02:40:18.240Z,11.3
2018-07-01T02:41:17.352Z,11.3
2018-07-01T02:42:16.565Z,11.3
2018-07-01T02:43:15.789Z,11.3
2018-07-01T02:44:15.013Z,11.3
2018-07-01T02:45:14.380Z,11.3
2018-07-01T02:46:13.213Z,11.2
2018-07-01T02:47:12.537Z,11.2
2018-07-01T02:48:11.865Z,11.2
2018-07-01T02:49:10.984Z,11.2
2018-07-01T02:50:10.311Z,11.2
2018-07-01T02:51:09.531Z,11.2
2018-07-01T02:52:08.865Z,11.2
2018-07-01T02:53:07.804Z,11.2
2018-07-01T02:54:07.158Z,11.2
2018-07-01T02:54:37.195Z,11.2
2018-07-01T02:55:07.956Z,11.1
2018-07-01T02:55:38.515Z,11.1
2018-07-01T02:56:09.163Z,11.1
2018-07-01T02:56:39.819Z,11.1
2018-07-01T02:58:03.816Z,11.1
2018-07-01T02:59:03.152Z,11.1
2018-07-01T03:00:02.389Z,11.1
2018-07-01T03:01:01.758Z,11.1
2018-07-01T03:02:00.884Z,11.1
2018-07-01T03:03:00.228Z,11.1
2018-07-01T03:03:59.466Z,11.1
2018-07-01T03:04:29.908Z,11.1
2018-07-01T03:05:00.567Z,11
2018-07-01T03:05:31.010Z,11
2018-07-01T03:06:01.679Z,11
2018-07-01T03:06:32.111Z,11
2018-07-01T03:07:02.798Z,11
2018-07-01T03:07:33.404Z,11
2018-07-01T03:08:03.550Z,11
2018-07-01T03:08:34.195Z,11
2018-07-01T03:09:54.466Z,11
2018-07-01T03:10:53.908Z,10.9
2018-07-01T03:11:53.250Z,10.9
2018-07-01T03:12:51.965Z,10.9
2018-07-01T03:13:51.306Z,11
2018-07-01T03:14:50.543Z,10.9
2018-07-01T03:15:49.878Z,10.9
2018-07-01T03:16:49.317Z,10.9
2018-07-01T03:17:48.157Z,10.9
2018-07-01T03:18:47.601Z,10.9
2018-07-01T03:19:46.334Z,10.9
2018-07-01T03:20:45.851Z,10.9
2018-07-01T03:21:45.096Z,10.9
2018-07-01T03:22:44.326Z,10.9
2018-07-01T03:23:43.661Z,10.8
2018-07-01T03:24:42.987Z,10.8
2018-07-01T03:25:42.119Z,10.8
2018-07-01T03:26:40.944Z,10.8
2018-07-01T03:27:40.356Z,10.8
2018-07-01T03:28:39.697Z,10.8
2018-07-01T03:29:39.022Z,10.8
2018-07-01T03:30:37.856Z,10.7
2018-07-01T03:31:37.299Z,10.7
2018-07-01T03:32:36.522Z,10.7
2018-07-01T03:33:35.639Z,10.7
2018-07-01T03:34:34.963Z,10.7
2018-07-01T03:35:33.791Z,10.7
2018-07-01T03:36:04.431Z,10.7
2018-07-01T03:36:34.966Z,10.7
2018-07-01T03:37:05.621Z,10.7
2018-07-01T03:38:31.624Z,10.7
2018-07-01T03:39:31.066Z,10.7
2018-07-01T03:40:29.786Z,10.7
2018-07-01T03:41:29.116Z,10.7
2018-07-01T03:42:28.349Z,10.7
2018-07-01T03:43:27.776Z,10.7
2018-07-01T03:44:26.886Z,10.7
2018-07-01T03:45:26.217Z,10.7
2018-07-01T03:46:25.138Z,10.6
2018-07-01T03:46:55.669Z,10.6
2018-07-01T03:47:26.318Z,10.6
2018-07-01T03:47:56.448Z,10.6
2018-07-01T03:48:26.988Z,10.6
2018-07-01T03:49:22.684Z,10.6
2018-07-01T03:50:22.123Z,10.6
2018-07-01T03:51:21.462Z,10.6
2018-07-01T03:52:20.286Z,10.6
2018-07-01T03:53:19.613Z,10.6
2018-07-01T03:54:18.946Z,10.6
2018-07-01T03:55:18.266Z,10.6
2018-07-01T03:56:17.381Z,10.6
2018-07-01T03:57:16.625Z,10.6
2018-07-01T03:57:47.029Z,10.6
2018-07-01T03:58:17.314Z,10.6
2018-07-01T03:59:15.146Z,10.5
2018-07-01T04:00:13.975Z,10.6
2018-07-01T04:01:13.202Z,10.5
2018-07-01T04:02:12.204Z,10.5
2018-07-01T04:03:11.539Z,10.5
2018-07-01T04:04:10.763Z,10.5
2018-07-01T04:05:09.984Z,10.5
2018-07-01T04:06:09.323Z,10.5
2018-07-01T04:07:08.761Z,10.5
2018-07-01T04:08:07.593Z,10.5
2018-07-01T04:09:06.712Z,10.5
2018-07-01T04:10:06.050Z,10.5
2018-07-01T04:11:05.486Z,10.5
2018-07-01T04:12:04.317Z,10.6
2018-07-01T04:13:03.751Z,10.5
2018-07-01T04:14:03.074Z,10.5
2018-07-01T04:15:02.194Z,10.6
2018-07-01T04:16:01.413Z,10.6
2018-07-01T04:17:00.526Z,10.6
2018-07-01T04:17:59.849Z,10.5
2018-07-01T04:18:58.786Z,10.6
2018-07-01T04:19:58.013Z,10.6
2018-07-01T04:20:57.454Z,10.6
2018-07-01T04:21:56.691Z,10.6
2018-07-01T04:22:55.809Z,10.6
2018-07-01T04:23:54.924Z,10.6
2018-07-01T04:24:54.259Z,10.6
2018-07-01T04:25:53.474Z,10.7
2018-07-01T04:26:52.693Z,10.7
2018-07-01T04:27:51.617Z,10.7
2018-07-01T04:28:50.836Z,10.7
2018-07-01T04:29:50.062Z,10.7
2018-07-01T04:30:49.495Z,10.7
2018-07-01T04:31:48.823Z,10.7
2018-07-01T04:32:47.534Z,10.7
2018-07-01T04:33:46.751Z,10.8
2018-07-01T04:34:46.086Z,10.8
2018-07-01T04:35:45.210Z,10.8
2018-07-01T04:36:44.538Z,10.8
2018-07-01T04:37:43.764Z,10.8
2018-07-01T04:38:43.094Z,10.8
2018-07-01T04:39:42.427Z,10.8
2018-07-01T04:40:41.266Z,10.8
2018-07-01T04:41:40.371Z,10.8
2018-07-01T04:42:11.050Z,10.8
2018-07-01T04:42:41.597Z,10.9
2018-07-01T04:43:12.243Z,10.9
2018-07-01T04:43:42.785Z,10.9
2018-07-01T04:44:13.314Z,10.9
2018-07-01T04:44:43.846Z,10.9
2018-07-01T04:45:14.602Z,10.9
2018-07-01T04:46:36.588Z,10.9
2018-07-01T04:47:36.027Z,10.9
2018-07-01T04:48:34.845Z,11
2018-07-01T04:49:33.969Z,11
2018-07-01T04:50:33.203Z,11
2018-07-01T04:51:32.530Z,11.1
2018-07-01T04:52:31.860Z,11.1
2018-07-01T04:53:31.086Z,11.1
2018-07-01T04:54:30.402Z,11.1
2018-07-01T04:55:29.530Z,11.2
2018-07-01T04:56:28.471Z,11.2
2018-07-01T04:57:27.907Z,11.2
2018-07-01T04:58:27.230Z,11.2
2018-07-01T04:59:25.834Z,11.2
2018-07-01T05:00:25.100Z,11.3
2018-07-01T05:01:24.551Z,11.3
2018-07-01T05:02:23.970Z,11.3
2018-07-01T05:03:22.927Z,11.3
2018-07-01T05:05:21.261Z,11.3
2018-07-01T05:06:20.479Z,11.3
2018-07-01T05:07:19.703Z,11.3
2018-07-01T05:08:18.820Z,11.4
2018-07-01T05:09:18.042Z,11.4
2018-07-01T05:10:17.166Z,11.4
2018-07-01T05:11:16.487Z,11.4
2018-07-01T05:12:15.833Z,11.4
2018-07-01T05:13:15.061Z,11.4
2018-07-01T05:14:14.390Z,11.4
2018-07-01T05:15:13.356Z,11.4
2018-07-01T05:16:12.785Z,11.4
2018-07-01T05:17:12.171Z,11.4
2018-07-01T05:18:11.211Z,11.4
2018-07-01T05:19:10.159Z,11.4
2018-07-01T05:20:09.490Z,11.4
2018-07-01T05:21:08.814Z,11.4
2018-07-01T05:22:07.743Z,11.4
2018-07-01T05:23:07.088Z,11.4
2018-07-01T05:23:37.327Z,11.4
2018-07-01T05:24:07.754Z,11.4
2018-07-01T05:24:38.296Z,11.4
2018-07-01T05:25:08.828Z,11.4
2018-07-01T05:25:39.466Z,11.4
2018-07-01T05:27:03.852Z,11.4
2018-07-01T05:28:03.084Z,11.4
2018-07-01T05:29:02.506Z,11.4
2018-07-01T05:30:01.448Z,11.4
2018-07-01T05:31:00.561Z,11.4
2018-07-01T05:31:59.892Z,11.5
2018-07-01T05:32:59.112Z,11.5
2018-07-01T05:33:58.441Z,11.6
2018-07-01T05:34:28.588Z,11.6
2018-07-01T05:34:59.287Z,11.6
2018-07-01T05:35:29.488Z,11.6
2018-07-01T05:35:59.629Z,11.6
2018-07-01T05:36:56.085Z,11.7
2018-07-01T05:38:54.111Z,11.7
2018-07-01T05:39:53.717Z,11.8
2018-07-01T05:40:52.545Z,11.8
2018-07-01T05:41:51.762Z,11.8
2018-07-01T05:42:50.986Z,11.9
2018-07-01T05:43:50.210Z,12
2018-07-01T05:45:48.821Z,12.1
2018-07-01T05:46:48.038Z,12.2
2018-07-01T05:47:47.375Z,12.3
2018-07-01T05:48:46.483Z,12.3
2018-07-01T05:49:45.818Z,12.3
2018-07-01T05:50:45.039Z,12.4
2018-07-01T05:51:43.978Z,12.4
2018-07-01T05:52:43.310Z,12.5
2018-07-01T05:53:42.425Z,12.5
2018-07-01T05:54:41.755Z,12.5
2018-07-01T05:55:41.186Z,12.6
2018-07-01T05:56:40.011Z,12.6
2018-07-01T05:57:39.511Z,12.6
2018-07-01T05:58:38.448Z,12.7
2018-07-01T05:59:37.884Z,12.7
2018-07-01T06:00:37.111Z,12.8
2018-07-01T06:01:36.440Z,12.8
2018-07-01T06:02:35.283Z,12.8
2018-07-01T06:03:34.609Z,12.8
2018-07-01T06:04:33.830Z,12.9
2018-07-01T06:05:33.047Z,12.9
2018-07-01T06:06:32.480Z,12.9
2018-07-01T06:07:31.409Z,13
2018-07-01T06:08:30.858Z,13
2018-07-01T06:09:30.196Z,13
2018-07-01T06:10:29.137Z,13
2018-07-01T06:11:28.293Z,13.1
2018-07-01T06:12:27.735Z,13.1
2018-07-01T06:13:26.961Z,13.1
2018-07-01T06:14:26.180Z,13.1
2018-07-01T06:15:25.401Z,13.2
2018-07-01T06:16:24.807Z,13.2
2018-07-01T06:17:23.493Z,13.2
2018-07-01T06:18:22.829Z,13.3
2018-07-01T06:19:21.956Z,13.3
2018-07-01T06:19:52.701Z,13.3
2018-07-01T06:20:23.239Z,13.4
2018-07-01T06:21:20.556Z,13.4
2018-07-01T06:22:19.892Z,13.4
2018-07-01T06:23:19.333Z,13.5
2018-07-01T06:24:18.211Z,13.5
2018-07-01T06:25:17.540Z,13.6
2018-07-01T06:26:16.875Z,13.7
2018-07-01T06:27:15.899Z,13.7
2018-07-01T06:28:15.235Z,13.7
2018-07-01T06:29:14.676Z,13.8
2018-07-01T06:29:44.982Z,13.8
2018-07-01T06:30:15.518Z,13.8
2018-07-01T06:30:46.154Z,13.8
2018-07-01T06:31:16.578Z,13.9
2018-07-01T06:31:47.111Z,13.9
2018-07-01T06:34:10.595Z,14
2018-07-01T06:35:10.047Z,14
2018-07-01T06:36:08.876Z,14.1
2018-07-01T06:37:08.493Z,14.1
2018-07-01T06:38:07.212Z,14.1
2018-07-01T06:39:06.930Z,14.2
2018-07-01T06:40:06.362Z,14.2
2018-07-01T06:41:04.977Z,14.2
2018-07-01T06:42:04.780Z,14.2
2018-07-01T06:43:03.660Z,14.3
2018-07-01T06:44:02.873Z,14.3
2018-07-01T06:45:02.104Z,14.3
2018-07-01T06:46:01.352Z,14.4
2018-07-01T06:47:00.585Z,14.4
2018-07-01T06:47:59.920Z,14.4
2018-07-01T06:48:59.260Z,14.5
2018-07-01T06:49:58.714Z,14.6
2018-07-01T06:50:57.650Z,14.6
2018-07-01T06:51:57.087Z,14.7
2018-07-01T06:52:56.424Z,14.7
2018-07-01T06:53:55.750Z,14.7
2018-07-01T06:54:54.582Z,14.7
2018-07-01T06:55:53.712Z,14.8
2018-07-01T06:56:53.038Z,14.8
2018-07-01T06:57:52.763Z,14.8
2018-07-01T06:58:51.581Z,14.8
2018-07-01T06:59:51.015Z,14.8
2018-07-01T07:00:21.161Z,14.8
2018-07-01T07:00:51.704Z,14.8
2018-07-01T07:01:22.246Z,14.8
2018-07-01T07:01:52.499Z,14.9
2018-07-01T07:02:48.907Z,14.9
2018-07-01T07:03:47.732Z,14.9
2018-07-01T07:04:47.060Z,14.9
2018-07-01T07:05:46.389Z,14.9
2018-07-01T07:06:45.511Z,15
2018-07-01T07:07:44.950Z,15
2018-07-01T07:08:44.414Z,15
2018-07-01T07:09:43.444Z,15
2018-07-01T07:10:42.766Z,15
2018-07-01T07:11:13.411Z,15
2018-07-01T07:11:44.158Z,15.1
2018-07-01T07:12:14.304Z,15.1
2018-07-01T07:12:44.955Z,15.1
2018-07-01T07:13:15.493Z,15.1
2018-07-01T07:14:39.894Z,15.2
2018-07-01T07:15:39.108Z,15.2
2018-07-01T07:16:38.329Z,15.3
2018-07-01T07:17:37.655Z,15.3
2018-07-01T07:19:36.370Z,15.4
2018-07-01T07:20:35.092Z,15.4
2018-07-01T07:21:34.810Z,15.5
2018-07-01T07:22:34.025Z,15.5
2018-07-01T07:23:33.355Z,15.6
2018-07-01T07:24:32.559Z,15.6
2018-07-01T07:25:31.732Z,15.6
2018-07-01T07:26:31.168Z,15.7
2018-07-01T07:28:29.382Z,15.8
2018-07-01T07:29:29.004Z,15.9
2018-07-01T07:30:27.931Z,15.9
2018-07-01T07:31:27.041Z,15.9
2018-07-01T07:32:26.883Z,15.9
2018-07-01T07:33:25.819Z,15.9
2018-07-01T07:34:25.045Z,15.9
2018-07-01T07:35:24.483Z,15.9
2018-07-01T07:36:23.823Z,15.9
2018-07-01T07:37:23.043Z,15.9
2018-07-01T07:38:22.272Z,15.9
2018-07-01T07:39:21.594Z,16
2018-07-01T07:40:21.025Z,16
2018-07-01T07:41:19.846Z,16
2018-07-01T07:42:19.166Z,16
2018-07-01T07:43:18.389Z,16
2018-07-01T07:44:18.113Z,16
2018-07-01T07:45:17.387Z,16.1
2018-07-01T07:46:16.308Z,16.1
2018-07-01T07:47:15.631Z,16.1
2018-07-01T07:48:14.853Z,16.1
2018-07-01T07:48:45.604Z,16.1
2018-07-01T07:49:16.037Z,16.2
2018-07-01T07:50:13.464Z,16.3
2018-07-01T07:51:12.804Z,16.3
2018-07-01T07:52:12.280Z,16.3
2018-07-01T07:53:11.118Z,16.4
2018-07-01T07:54:10.947Z,16.5
2018-07-01T07:55:09.673Z,16.5
2018-07-01T07:56:09.388Z,16.6
2018-07-01T07:57:08.724Z,16.6
2018-07-01T07:58:07.950Z,16.6
2018-07-01T08:00:06.655Z,16.6
2018-07-01T08:01:05.530Z,16.6
2018-07-01T08:02:04.979Z,16.6
2018-07-01T08:03:03.996Z,16.5
2018-07-01T08:04:03.720Z,16.5
2018-07-01T08:05:02.670Z,16.6
2018-07-01T08:06:01.900Z,16.6
2018-07-01T08:07:01.251Z,16.6
2018-07-01T08:08:00.860Z,16.6
2018-07-01T08:08:31.197Z,16.6
2018-07-01T08:09:01.740Z,16.6
2018-07-01T08:09:32.391Z,16.6
2018-07-01T08:10:58.287Z,16.7
2018-07-01T08:11:58.136Z,16.7
2018-07-01T08:12:57.341Z,16.8
2018-07-01T08:13:56.730Z,16.8
2018-07-01T08:14:55.846Z,16.8
2018-07-01T08:15:55.063Z,16.9
2018-07-01T08:16:54.404Z,16.9
2018-07-01T08:17:53.748Z,16.9
2018-07-01T08:18:52.744Z,17
2018-07-01T08:19:52.071Z,17.2
2018-07-01T08:20:51.693Z,17.2
2018-07-01T08:21:50.681Z,17.2
2018-07-01T08:22:50.084Z,17.2
2018-07-01T08:23:49.421Z,17.3
2018-07-01T08:24:48.852Z,17.3
2018-07-01T08:26:47.069Z,17.3
2018-07-01T08:27:46.578Z,17.4
2018-07-01T08:28:45.909Z,17.4
2018-07-01T08:29:45.129Z,17.4
2018-07-01T08:30:44.361Z,17.4
2018-07-01T08:31:44.079Z,17.4
2018-07-01T08:32:43.092Z,17.3
2018-07-01T08:33:42.313Z,17.3
2018-07-01T08:34:41.762Z,17.2
2018-07-01T08:35:41.208Z,17.2
2018-07-01T08:36:40.532Z,17.3
2018-07-01T08:37:39.851Z,17.3
2018-07-01T08:38:39.176Z,17.4
2018-07-01T08:39:38.513Z,17.4
2018-07-01T08:40:37.739Z,17.4
2018-07-01T08:41:37.070Z,17.5
2018-07-01T08:42:36.401Z,17.5
2018-07-01T08:43:35.519Z,17.5
2018-07-01T08:44:34.746Z,17.6
2018-07-01T08:45:34.070Z,17.6
2018-07-01T08:46:33.307Z,17.5
2018-07-01T08:47:32.530Z,17.5
2018-07-01T08:48:32.372Z,17.5
2018-07-01T08:49:02.796Z,17.5
2018-07-01T08:49:33.335Z,17.5
2018-07-01T08:50:03.762Z,17.5
2018-07-01T08:50:34.185Z,17.5
2018-07-01T08:51:04.732Z,17.5
2018-07-01T08:52:29.468Z,17.8
2018-07-01T08:53:28.493Z,17.8
2018-07-01T08:54:28.108Z,17.8
2018-07-01T08:55:27.338Z,17.8
2018-07-01T08:56:26.558Z,17.8
2018-07-01T08:57:25.891Z,17.8
2018-07-01T08:58:25.219Z,17.8
2018-07-01T08:59:24.329Z,17.8
2018-07-01T08:59:54.872Z,17.8
2018-07-01T09:00:25.514Z,17.9
2018-07-01T09:00:55.938Z,17.9
2018-07-01T09:01:26.576Z,18.1
2018-07-01T09:01:57.107Z,18.1
2018-07-01T09:03:22.018Z,18.2
2018-07-01T09:04:21.127Z,18.2
2018-07-01T09:06:19.847Z,18.3
2018-07-01T09:07:19.279Z,18.4
2018-07-01T09:08:18.724Z,18.4
2018-07-01T09:09:17.995Z,18.3
2018-07-01T09:10:16.926Z,18.3
2018-07-01T09:11:16.359Z,18.2
2018-07-01T09:12:15.811Z,18.2
2018-07-01T09:13:14.934Z,18.1
2018-07-01T09:14:14.669Z,18.1
2018-07-01T09:15:13.597Z,18.1
2018-07-01T09:16:12.817Z,18.2
2018-07-01T09:17:12.791Z,18.2
2018-07-01T09:18:11.905Z,18.2
2018-07-01T09:19:11.240Z,18.3
2018-07-01T09:20:10.681Z,18.3
2018-07-01T09:21:09.513Z,18.4
2018-07-01T09:22:09.233Z,18.3
2018-07-01T09:23:08.455Z,18.3
2018-07-01T09:24:07.679Z,18.2
2018-07-01T09:25:07.016Z,18.2
2018-07-01T09:26:06.252Z,18.3
2018-07-01T09:27:05.572Z,18.3
2018-07-01T09:28:05.031Z,18.2
2018-07-01T09:29:04.151Z,18.2
2018-07-01T09:30:03.875Z,18.3
2018-07-01T09:31:03.330Z,18.4
2018-07-01T09:32:02.050Z,18.4
2018-07-01T09:33:01.781Z,18.5
2018-07-01T09:34:00.998Z,18.5
2018-07-01T09:35:00.455Z,18.5
2018-07-01T09:35:59.679Z,18.4
2018-07-01T09:36:59.022Z,18.3
2018-07-01T09:37:58.353Z,18.2
2018-07-01T09:38:57.677Z,18.3
2018-07-01T09:39:57.155Z,18.3
2018-07-01T09:40:56.276Z,18.3
2018-07-01T09:41:55.661Z,18.4
2018-07-01T09:42:55.125Z,18.4
2018-07-01T09:43:54.553Z,18.8
2018-07-01T09:44:53.884Z,18.8
2018-07-01T09:45:52.999Z,18.8
2018-07-01T09:46:52.741Z,18.7
2018-07-01T09:47:23.277Z,18.7
2018-07-01T09:47:53.815Z,18.6
2018-07-01T09:48:51.238Z,18.5
2018-07-01T09:49:50.462Z,18.5
2018-07-01T09:50:49.693Z,18.5
2018-07-01T09:51:49.146Z,18.5
2018-07-01T09:52:48.273Z,18.6
2018-07-01T09:53:47.713Z,18.8
2018-07-01T09:54:47.156Z,18.8
2018-07-01T09:56:45.886Z,18.9
2018-07-01T09:57:16.435Z,18.9
2018-07-01T09:57:47.173Z,18.9
2018-07-01T09:58:17.411Z,18.9
2018-07-01T09:58:47.551Z,18.9
2018-07-01T09:59:18.188Z,18.9
2018-07-01T10:00:43.088Z,18.7
2018-07-01T10:02:42.316Z,18.7
2018-07-01T10:03:41.265Z,18.7
2018-07-01T10:04:40.490Z,18.7
2018-07-01T10:05:39.915Z,18.8
2018-07-01T10:06:39.643Z,18.7
2018-07-01T10:07:39.082Z,18.8
2018-07-01T10:08:38.405Z,18.9
2018-07-01T10:09:37.740Z,18.8
2018-07-01T10:10:37.062Z,18.9
2018-07-01T10:11:36.511Z,19
2018-07-01T10:12:35.734Z,19
2018-07-01T10:13:35.055Z,19.3
2018-07-01T10:15:33.670Z,19.5
2018-07-01T10:16:33.004Z,19.5
2018-07-01T10:17:32.442Z,19.5
2018-07-01T10:18:31.666Z,19.5
2018-07-01T10:19:30.776Z,19.4
2018-07-01T10:20:30.624Z,19.4
2018-07-01T10:21:29.846Z,19.3
2018-07-01T10:22:29.071Z,19.3
2018-07-01T10:23:28.517Z,19.3
2018-07-01T10:24:27.960Z,19.4
2018-07-01T10:25:27.297Z,19.4
2018-07-01T10:26:26.793Z,19.5
2018-07-01T10:27:25.790Z,19.5
2018-07-01T10:27:56.453Z,19.5
2018-07-01T10:28:26.697Z,19.5
2018-07-01T10:28:57.339Z,19.5
2018-07-01T10:30:24.247Z,19.5
2018-07-01T10:31:23.692Z,19.5
2018-07-01T10:32:23.003Z,19.5
2018-07-01T10:33:22.335Z,19.6
2018-07-01T10:34:21.452Z,19.5
2018-07-01T10:35:20.688Z,19.6
2018-07-01T10:36:20.017Z,19.6
2018-07-01T10:37:19.845Z,19.6
2018-07-01T10:38:19.073Z,19.5
2018-07-01T10:38:49.611Z,19.5
2018-07-01T10:39:20.147Z,19.5
2018-07-01T10:39:50.780Z,19.5
2018-07-01T10:40:21.213Z,19.6
2018-07-01T10:40:51.650Z,19.6
2018-07-01T10:41:22.296Z,19.7
2018-07-01T10:41:52.828Z,19.7
2018-07-01T10:43:15.713Z,19.6
2018-07-01T10:44:15.435Z,19.7
2018-07-01T10:45:14.861Z,19.7
2018-07-01T10:46:14.192Z,19.8
2018-07-01T10:47:13.413Z,19.8
2018-07-01T10:48:13.138Z,19.7
2018-07-01T10:49:12.368Z,19.8
2018-07-01T10:50:11.805Z,19.9
2018-07-01T10:50:41.955Z,19.9
2018-07-01T10:52:10.255Z,19.9
2018-07-01T10:53:09.584Z,20.1
2018-07-01T10:54:09.424Z,20.2
2018-07-01T10:55:08.439Z,20.3
2018-07-01T10:56:07.883Z,20.3
2018-07-01T10:57:07.503Z,20.4
2018-07-01T10:58:06.831Z,20.3
2018-07-01T10:59:06.160Z,20.4
2018-07-01T11:00:05.487Z,20.5
2018-07-01T11:01:05.006Z,20.6
2018-07-01T11:02:04.331Z,20.7
2018-07-01T11:03:03.664Z,20.8
2018-07-01T11:04:03.279Z,21
2018-07-01T11:05:02.609Z,21.2
2018-07-01T11:06:02.134Z,21.3
2018-07-01T11:07:01.585Z,21.4
2018-07-01T11:08:00.609Z,21.4
2018-07-01T11:08:59.960Z,21.4
2018-07-01T11:09:59.681Z,21.4
2018-07-01T11:10:58.900Z,21.1
2018-07-01T11:11:58.126Z,21
2018-07-01T11:12:57.876Z,20.9
2018-07-01T11:13:57.368Z,20.9
2018-07-01T11:14:56.384Z,20.8
2018-07-01T11:15:56.111Z,20.7
2018-07-01T11:16:55.327Z,20.6
2018-07-01T11:17:54.947Z,20.7
2018-07-01T11:18:54.064Z,20.7
2018-07-01T11:19:53.907Z,20.7
2018-07-01T11:20:53.125Z,20.6
2018-07-01T11:21:52.557Z,20.6
2018-07-01T11:22:51.987Z,20.4
2018-07-01T11:23:51.435Z,20.4
2018-07-01T11:24:50.654Z,20.2
2018-07-01T11:25:50.400Z,20.1
2018-07-01T11:26:50.325Z,20
2018-07-01T11:27:49.106Z,20
2018-07-01T11:28:48.332Z,19.9
2018-07-01T11:29:48.060Z,20.1
2018-07-01T11:30:47.282Z,20.3
2018-07-01T11:31:46.722Z,20.3
2018-07-01T11:32:46.270Z,20.2
2018-07-01T11:33:45.413Z,20.4
2018-07-01T11:34:45.146Z,20.5
2018-07-01T11:35:44.576Z,20.6
2018-07-01T11:36:43.906Z,20.8
2018-07-01T11:37:43.338Z,20.8
2018-07-01T11:38:13.903Z,20.8
2018-07-01T11:38:44.542Z,20.6
2018-07-01T11:39:15.182Z,20.6
2018-07-01T11:40:41.584Z,20.6
2018-07-01T11:41:40.930Z,20.5
2018-07-01T11:42:40.628Z,20.6
2018-07-01T11:43:39.703Z,20.9
2018-07-01T11:44:39.593Z,21.1
2018-07-01T11:45:38.914Z,21.4
2018-07-01T11:46:37.919Z,21.5
2018-07-01T11:48:37.032Z,21.9
2018-07-01T11:49:07.466Z,21.9
2018-07-01T11:49:37.900Z,22
2018-07-01T11:50:08.548Z,22
2018-07-01T11:51:35.053Z,22.5
2018-07-01T11:52:34.270Z,22.7
2018-07-01T11:53:34.230Z,22.8
2018-07-01T11:54:33.349Z,22.7
2018-07-01T11:55:33.180Z,22.7
2018-07-01T11:56:32.619Z,22.7
2018-07-01T11:57:31.843Z,22.5
2018-07-01T11:58:31.486Z,22.6
2018-07-01T11:59:30.820Z,22.6
2018-07-01T12:00:30.044Z,22.6
2018-07-01T12:01:29.491Z,22.5
2018-07-01T12:03:28.499Z,22.6
2018-07-01T12:04:27.827Z,22.8
2018-07-01T12:05:27.820Z,22.8
2018-07-01T12:06:27.263Z,22.9
2018-07-01T12:07:26.491Z,23
2018-07-01T12:08:25.713Z,23.1
2018-07-01T12:09:25.429Z,23.3
2018-07-01T12:10:24.694Z,23.3
2018-07-01T12:11:24.528Z,23.1
2018-07-01T12:12:23.852Z,23
2018-07-01T12:13:23.086Z,22.8
2018-07-01T12:14:22.816Z,22.6
2018-07-01T12:15:22.048Z,22.5
2018-07-01T12:16:21.481Z,22.5
2018-07-01T12:17:21.315Z,22.6
2018-07-01T12:18:20.536Z,22.6
2018-07-01T12:18:51.182Z,22.6
2018-07-01T12:19:21.429Z,22.7
2018-07-01T12:19:52.079Z,22.7
2018-07-01T12:20:22.497Z,22.4
2018-07-01T12:21:19.096Z,22.4
2018-07-01T12:21:49.842Z,22.4
2018-07-01T12:22:20.481Z,22.4
2018-07-01T12:22:51.121Z,22.4
2018-07-01T12:24:17.635Z,22.3
2018-07-01T12:25:16.970Z,22.4
2018-07-01T12:26:16.299Z,22.4
2018-07-01T12:27:15.735Z,22.8
2018-07-01T12:28:15.461Z,23
2018-07-01T12:29:14.569Z,23.3
2018-07-01T12:30:14.310Z,23.6
2018-07-01T12:30:44.562Z,23.6
2018-07-01T12:31:14.706Z,23.4
2018-07-01T12:31:45.132Z,23.4
2018-07-01T12:32:15.873Z,23.5
2018-07-01T12:32:46.416Z,23.5
2018-07-01T12:34:12.381Z,23.4
2018-07-01T12:35:11.597Z,23.6